createdAt,value
2022-12-16T00:01:28.472Z,83.82
2022-12-16T00:03:57.569Z,83.43
2022-12-16T00:06:27.329Z,78.45
2022-12-16T00:08:54.031Z,76.90
2022-12-16T00:11:21.847Z,74.13
2022-12-16T00:13:48.758Z,74.80
2022-12-16T00:16:17.550Z,83.70
2022-12-16T00:18:45.043Z,83.38
2022-12-16T00:21:12.051Z,90.57
2022-12-16T00:23:41.693Z,87.78
2022-12-16T00:26:09.418Z,78.88
2022-12-16T00:28:37.220Z,81.25
2022-12-16T00:31:04.151Z,80.50
2022-12-16T00:33:31.468Z,92.90
2022-12-16T00:35:58.628Z,78.90
2022-12-16T00:38:26.917Z,88.55
2022-12-16T00:40:53.635Z,88.55
2022-12-16T00:43:20.607Z,81.22
2022-12-16T00:45:48.010Z,77.03
2022-12-16T00:48:15.378Z,80.00
2022-12-16T00:50:46.161Z,86.53
2022-12-16T00:53:12.855Z,77.82
2022-12-16T00:55:39.562Z,85.70
2022-12-16T00:58:06.254Z,89.88
2022-12-16T01:00:32.967Z,80.78
2022-12-16T01:02:59.772Z,85.07
2022-12-16T01:05:27.687Z,75.78
2022-12-16T01:07:55.661Z,85.80
2022-12-16T01:10:23.486Z,81.93
2022-12-16T01:12:50.975Z,91.65
2022-12-16T01:15:18.975Z,83.43
2022-12-16T01:17:46.198Z,75.57
2022-12-16T01:20:14.332Z,80.95
2022-12-16T01:22:42.347Z,81.57
2022-12-16T01:25:13.046Z,80.78
2022-12-16T01:27:40.436Z,73.53
2022-12-16T01:30:09.186Z,88.10
2022-12-16T01:32:36.679Z,86.35
2022-12-16T01:35:03.710Z,90.25
2022-12-16T01:37:30.503Z,77.15
2022-12-16T01:39:57.209Z,88.07
2022-12-16T01:42:26.585Z,81.90
2022-12-16T01:44:55.140Z,69.85
2022-12-16T01:47:28.391Z,81.35
2022-12-16T01:50:02.528Z,75.80
2022-12-16T01:52:36.408Z,73.05
2022-12-16T01:55:08.450Z,72.82
2022-12-16T01:57:46.122Z,82.57
2022-12-16T02:00:13.776Z,77.97
2022-12-16T02:02:45.559Z,76.45
2022-12-16T02:05:22.181Z,68.45
2022-12-16T02:08:05.075Z,75.70
2022-12-16T02:10:55.817Z,64.03
2022-12-16T02:13:43.120Z,80.50
2022-12-16T02:16:38.556Z,71.03
2022-12-16T02:19:06.257Z,66.05
2022-12-16T02:21:49.289Z,69.97
2022-12-16T02:24:46.428Z,67.20
2022-12-16T02:27:48.194Z,75.20
2022-12-16T02:30:45.853Z,67.35
2022-12-16T02:33:38.291Z,70.75
2022-12-16T02:36:37.132Z,73.78
2022-12-16T02:39:20.012Z,75.70
2022-12-16T02:42:07.207Z,77.53
2022-12-16T02:44:49.682Z,72.40
2022-12-16T02:47:17.274Z,74.70
2022-12-16T02:49:48.453Z,70.57
2022-12-16T02:52:18.572Z,85.07
2022-12-16T02:54:46.599Z,65.25
2022-12-16T02:57:43.746Z,82.70
2022-12-16T03:00:13.120Z,65.07
2022-12-16T03:03:07.199Z,70.53
2022-12-16T03:05:41.004Z,75.47
2022-12-16T03:08:14.729Z,73.93
2022-12-16T03:10:46.094Z,80.25
2022-12-16T03:13:17.604Z,71.13
2022-12-16T03:15:45.893Z,75.28
2022-12-16T03:18:14.756Z,72.35
2022-12-16T03:20:45.736Z,83.82
2022-12-16T03:23:17.495Z,68.13
2022-12-16T03:25:47.918Z,69.20
2022-12-16T03:28:39.895Z,66.43
2022-12-16T03:31:18.921Z,70.40
2022-12-16T03:33:54.851Z,64.85
2022-12-16T03:36:23.185Z,69.35
2022-12-16T03:38:51.555Z,68.43
2022-12-16T03:41:22.047Z,65.18
2022-12-16T03:43:53.637Z,68.22
2022-12-16T03:46:20.669Z,66.13
2022-12-16T03:48:50.812Z,69.25
2022-12-16T03:51:19.013Z,69.35
2022-12-16T03:53:46.532Z,61.20
2022-12-16T03:56:13.686Z,60.10
2022-12-16T03:58:41.082Z,52.30
2022-12-16T04:01:09.853Z,53.60
2022-12-16T04:03:38.495Z,62.80
2022-12-16T04:06:06.107Z,60.42
2022-12-16T04:08:32.973Z,67.00
2022-12-16T04:11:15.093Z,60.83
2022-12-16T04:13:57.098Z,61.17
2022-12-16T04:16:43.010Z,58.92
2022-12-16T04:19:35.595Z,64.72
2022-12-16T04:22:17.564Z,62.30
2022-12-16T04:24:44.318Z,62.55
2022-12-16T04:27:26.321Z,61.97
2022-12-16T04:30:08.937Z,60.47
2022-12-16T04:32:51.155Z,64.28
2022-12-16T04:35:33.261Z,73.95
2022-12-16T04:38:15.273Z,68.80
2022-12-16T04:40:57.338Z,78.30
2022-12-16T04:43:39.637Z,71.65
2022-12-16T04:46:21.714Z,74.88
2022-12-16T04:49:03.758Z,68.93
2022-12-16T04:51:50.359Z,74.13
2022-12-16T04:54:32.436Z,80.88
2022-12-16T04:57:14.497Z,78.15
2022-12-16T05:00:01.091Z,74.60
2022-12-16T05:02:43.291Z,79.07
2022-12-16T05:05:25.230Z,76.63
2022-12-16T05:08:07.284Z,70.32
2022-12-16T05:10:49.339Z,76.97
2022-12-16T05:13:31.513Z,70.05
2022-12-16T05:16:13.805Z,74.25
2022-12-16T05:18:55.964Z,74.72
2022-12-16T05:21:38.050Z,73.85
2022-12-16T05:24:20.311Z,79.03
2022-12-16T05:27:02.380Z,77.03
2022-12-16T05:29:44.406Z,79.70
2022-12-16T05:32:26.489Z,105.32
2022-12-16T05:35:08.537Z,136.52
2022-12-16T05:37:50.597Z,257.70
2022-12-16T05:40:32.616Z,301.42
2022-12-16T05:43:16.894Z,228.07
2022-12-16T05:45:59.290Z,116.53
2022-12-16T05:48:47.510Z,94.82
2022-12-16T05:51:29.995Z,88.25
2022-12-16T05:54:12.078Z,99.07
2022-12-16T05:56:54.145Z,115.57
2022-12-16T05:59:36.171Z,79.75
2022-12-16T06:02:18.522Z,78.65
2022-12-16T06:05:00.906Z,76.32
2022-12-16T06:07:43.053Z,64.65
2022-12-16T06:10:25.148Z,70.13
2022-12-16T06:13:07.180Z,58.63
2022-12-16T06:15:49.245Z,63.83
2022-12-16T06:18:31.282Z,65.07
2022-12-16T06:21:13.342Z,63.85
2022-12-16T06:23:55.357Z,79.97
2022-12-16T06:26:37.425Z,61.22
2022-12-16T06:29:20.751Z,54.35
2022-12-16T06:32:02.875Z,50.88
2022-12-16T06:34:44.851Z,45.50
2022-12-16T06:37:26.900Z,50.22
2022-12-16T06:40:08.941Z,50.15
2022-12-16T06:42:55.580Z,47.15
2022-12-16T06:45:37.690Z,41.67
2022-12-16T06:48:19.962Z,41.08
2022-12-16T06:51:01.992Z,40.78
2022-12-16T06:53:48.661Z,40.58
2022-12-16T06:56:30.690Z,42.75
2022-12-16T06:59:12.735Z,37.15
2022-12-16T07:01:54.878Z,39.95
2022-12-16T07:04:37.073Z,37.35
2022-12-16T07:07:19.139Z,39.88
2022-12-16T07:10:01.180Z,36.75
2022-12-16T07:12:43.265Z,39.10
2022-12-16T07:15:25.797Z,37.95
2022-12-16T07:18:07.861Z,35.08
2022-12-16T07:20:49.874Z,42.22
2022-12-16T07:23:32.913Z,38.80
2022-12-16T07:26:15.045Z,44.25
2022-12-16T07:28:57.035Z,42.80
2022-12-16T07:31:39.108Z,43.17
2022-12-16T07:34:21.117Z,35.72
2022-12-16T07:37:03.128Z,34.65
2022-12-16T07:39:48.704Z,37.05
2022-12-16T07:42:33.389Z,37.20
2022-12-16T07:45:19.507Z,41.45
2022-12-16T07:48:03.888Z,39.97
2022-12-16T07:50:45.679Z,41.53
2022-12-16T07:53:31.307Z,40.95
2022-12-16T07:56:13.616Z,42.67
2022-12-16T07:58:55.646Z,44.33
2022-12-16T08:01:40.941Z,40.40
2022-12-16T08:04:23.091Z,45.03
2022-12-16T08:07:04.850Z,41.00
2022-12-16T08:09:46.689Z,48.95
2022-12-16T08:12:28.723Z,44.42
2022-12-16T08:15:10.748Z,44.67
2022-12-16T08:17:52.818Z,43.92
2022-12-16T08:20:34.876Z,49.38
2022-12-16T08:23:16.916Z,50.85
2022-12-16T08:25:59.033Z,55.03
2022-12-16T08:28:41.018Z,59.47
2022-12-16T08:31:22.800Z,49.58
2022-12-16T08:34:04.852Z,49.25
2022-12-16T08:36:46.654Z,55.55
2022-12-16T08:39:28.699Z,58.85
2022-12-16T08:42:10.479Z,50.15
2022-12-16T08:44:52.268Z,41.03
2022-12-16T08:47:34.809Z,41.17
2022-12-16T08:50:16.886Z,42.55
2022-12-16T08:52:58.678Z,39.00
2022-12-16T08:55:40.782Z,44.08
2022-12-16T08:58:22.765Z,40.55
2022-12-16T09:01:07.465Z,39.30
2022-12-16T09:03:50.974Z,38.33
2022-12-16T09:06:38.525Z,37.53
2022-12-16T09:09:22.194Z,42.50
2022-12-16T09:12:04.031Z,40.60
2022-12-16T09:14:45.822Z,35.03
2022-12-16T09:17:27.860Z,36.03
2022-12-16T09:20:09.907Z,37.97
2022-12-16T09:22:51.705Z,35.35
2022-12-16T09:25:33.448Z,35.22
2022-12-16T09:28:15.279Z,32.83
2022-12-16T09:30:57.139Z,33.90
2022-12-16T09:33:39.099Z,39.70
2022-12-16T09:36:21.413Z,41.58
2022-12-16T09:39:03.232Z,40.05
2022-12-16T09:41:56.257Z,37.90
2022-12-16T09:44:53.460Z,49.17
2022-12-16T09:48:00.537Z,45.45
2022-12-16T09:50:43.622Z,47.42
2022-12-16T09:53:29.804Z,64.93
2022-12-16T09:56:13.085Z,45.95
2022-12-16T09:59:01.383Z,50.20
2022-12-16T10:01:48.232Z,39.53
2022-12-16T10:07:15.632Z,37.72
2022-12-16T10:10:12.788Z,41.17
2022-12-16T10:12:56.658Z,40.35
2022-12-16T10:15:50.231Z,42.88
2022-12-16T10:18:45.576Z,39.33
2022-12-16T10:21:37.080Z,41.95
2022-12-16T10:24:39.318Z,37.85
2022-12-16T10:27:29.597Z,41.95
2022-12-16T10:30:11.618Z,41.80
2022-12-16T10:32:58.047Z,41.55
2022-12-16T10:35:45.997Z,41.33
2022-12-16T10:38:44.381Z,38.10
2022-12-16T10:41:27.471Z,36.80
2022-12-16T10:44:11.576Z,44.17
2022-12-16T10:46:53.609Z,41.20
2022-12-16T10:49:37.018Z,39.97
2022-12-16T10:52:19.242Z,48.17
2022-12-16T10:55:13.340Z,46.70
2022-12-16T10:58:10.726Z,49.65
2022-12-16T11:03:41.281Z,44.22
2022-12-16T11:06:27.263Z,47.72
2022-12-16T11:09:09.167Z,48.72
2022-12-16T11:11:51.236Z,51.97
2022-12-16T11:14:36.059Z,53.92
2022-12-16T11:17:38.119Z,48.83
2022-12-16T11:20:27.591Z,48.30
2022-12-16T11:23:40.071Z,50.13
2022-12-16T11:26:22.906Z,55.65
2022-12-16T11:29:21.334Z,50.55
2022-12-16T11:32:10.295Z,49.40
2022-12-16T11:34:52.601Z,54.97
2022-12-16T11:37:36.158Z,52.35
2022-12-16T11:40:18.751Z,50.72
2022-12-16T11:43:08.510Z,47.33
2022-12-16T11:45:55.898Z,48.97
2022-12-16T11:48:54.585Z,47.50
2022-12-16T11:51:40.225Z,46.42
2022-12-16T11:54:30.675Z,50.10
2022-12-16T11:57:16.346Z,52.25
2022-12-16T12:00:13.259Z,49.42
2022-12-16T12:03:06.196Z,46.55
2022-12-16T12:05:55.258Z,52.33
2022-12-16T12:08:53.934Z,57.72
2022-12-16T12:11:51.090Z,53.67
2022-12-16T12:14:49.285Z,55.85
2022-12-16T12:17:46.656Z,56.40
2022-12-16T12:20:46.647Z,60.03
2022-12-16T12:23:41.505Z,56.17
2022-12-16T12:26:38.648Z,58.30
2022-12-16T12:29:29.379Z,64.85
2022-12-16T12:32:22.457Z,55.65
2022-12-16T12:35:05.242Z,52.47
2022-12-16T12:37:55.800Z,56.20
2022-12-16T12:40:57.760Z,57.65
2022-12-16T12:44:01.604Z,57.45
2022-12-16T12:46:53.167Z,63.67
2022-12-16T12:49:48.463Z,62.13
2022-12-16T12:53:05.600Z,54.15
2022-12-16T12:56:02.488Z,62.20
2022-12-16T12:58:48.379Z,52.88
2022-12-16T13:01:34.317Z,56.95
2022-12-16T13:04:25.494Z,58.03
2022-12-16T13:07:08.353Z,55.30
2022-12-16T13:09:53.453Z,56.65
2022-12-16T13:12:40.631Z,60.63
2022-12-16T13:18:20.365Z,59.00
2022-12-16T13:21:06.234Z,62.28
2022-12-16T13:23:51.571Z,64.75
2022-12-16T13:26:35.728Z,62.17
2022-12-16T13:29:33.389Z,72.00
2022-12-16T13:32:20.025Z,69.72
2022-12-16T13:35:13.556Z,62.50
2022-12-16T13:37:55.400Z,57.13
2022-12-16T13:40:39.216Z,64.40
2022-12-16T13:43:32.717Z,72.95
2022-12-16T13:46:14.882Z,65.63
2022-12-16T13:48:57.671Z,67.47
2022-12-16T13:51:59.451Z,67.35
2022-12-16T13:54:57.055Z,63.97
2022-12-16T13:57:42.207Z,61.42
2022-12-16T14:00:36.722Z,60.83
2022-12-16T14:03:25.589Z,64.95
2022-12-16T14:06:10.374Z,60.50
2022-12-16T14:08:53.673Z,62.90
2022-12-16T14:11:46.013Z,62.88
2022-12-16T14:14:45.448Z,61.80
2022-12-16T14:17:35.140Z,57.30
2022-12-16T14:20:37.713Z,61.22
2022-12-16T14:23:47.367Z,65.32
2022-12-16T14:26:28.411Z,72.10
2022-12-16T14:29:11.240Z,66.68
2022-12-16T14:31:56.419Z,66.95
2022-12-16T14:34:42.245Z,66.18
2022-12-16T14:37:34.247Z,73.43
2022-12-16T14:40:16.321Z,76.88
2022-12-16T14:42:58.869Z,71.53
2022-12-16T14:45:42.757Z,68.50
2022-12-16T14:48:49.945Z,71.95
2022-12-16T14:51:46.233Z,66.63
2022-12-16T14:54:34.693Z,63.83
2022-12-16T14:57:16.685Z,71.35
2022-12-16T14:59:58.759Z,60.08
2022-12-16T15:02:46.506Z,60.42
2022-12-16T15:05:31.570Z,68.10
2022-12-16T15:08:14.361Z,63.22
2022-12-16T15:10:56.958Z,65.90
2022-12-16T15:13:39.280Z,62.58
2022-12-16T15:16:22.651Z,61.38
2022-12-16T15:19:14.148Z,69.55
2022-12-16T15:21:56.219Z,61.45
2022-12-16T15:24:40.210Z,67.55
2022-12-16T15:27:37.401Z,70.97
2022-12-16T15:30:54.584Z,66.57
2022-12-16T15:33:39.900Z,68.70
2022-12-16T15:36:26.815Z,62.35
2022-12-16T15:41:53.194Z,66.63
2022-12-16T15:44:39.614Z,69.43
2022-12-16T15:47:50.820Z,74.07
2022-12-16T15:50:36.472Z,66.97
2022-12-16T15:53:48.754Z,73.78
2022-12-16T15:56:36.949Z,72.68
2022-12-16T15:59:49.411Z,69.78
2022-12-16T16:02:38.835Z,68.82
2022-12-16T16:05:36.841Z,67.72
2022-12-16T16:08:19.365Z,72.22
2022-12-16T16:11:01.458Z,75.78
2022-12-16T16:13:43.720Z,70.13
2022-12-16T16:16:27.354Z,82.70
2022-12-16T16:19:09.333Z,76.72
2022-12-16T16:21:51.162Z,74.70
2022-12-16T16:24:32.960Z,71.78
2022-12-16T16:27:17.807Z,73.80
2022-12-16T16:29:59.610Z,78.45
2022-12-16T16:32:41.412Z,80.97
2022-12-16T16:35:23.468Z,78.25
2022-12-16T16:38:05.501Z,78.97
2022-12-16T16:40:51.441Z,93.50
2022-12-16T16:43:34.347Z,93.78
2022-12-16T16:46:16.784Z,96.50
2022-12-16T16:48:58.851Z,93.97
2022-12-16T16:51:41.087Z,94.32
2022-12-16T16:54:22.919Z,101.03
2022-12-16T16:57:04.947Z,109.28
2022-12-16T16:59:46.758Z,104.53
2022-12-16T17:02:40.229Z,97.72
2022-12-16T17:05:23.392Z,99.22
2022-12-16T17:08:05.673Z,110.18
2022-12-16T17:10:47.746Z,94.78
2022-12-16T17:13:30.180Z,107.25
2022-12-16T17:16:12.186Z,115.70
2022-12-16T17:18:54.155Z,108.63
2022-12-16T17:21:36.163Z,107.75
2022-12-16T17:24:18.254Z,109.82
2022-12-16T17:27:00.774Z,96.68
2022-12-16T17:29:43.105Z,102.40
2022-12-16T17:32:25.443Z,92.45
2022-12-16T17:35:07.454Z,96.28
2022-12-16T17:37:49.491Z,104.80
2022-12-16T17:40:31.546Z,105.70
2022-12-16T17:43:13.563Z,104.68
2022-12-16T17:45:55.403Z,104.13
2022-12-16T17:48:40.378Z,104.18
2022-12-16T17:51:25.856Z,104.32
2022-12-16T17:54:15.804Z,106.82
2022-12-16T17:57:01.789Z,114.45
2022-12-16T17:59:43.823Z,105.35
2022-12-16T18:02:28.194Z,110.57
2022-12-16T18:05:10.210Z,107.82
2022-12-16T18:07:51.992Z,112.10
2022-12-16T18:10:34.026Z,105.78
2022-12-16T18:13:17.130Z,99.00
2022-12-16T18:15:59.200Z,104.88
2022-12-16T18:18:46.046Z,104.13
2022-12-16T18:21:29.405Z,93.05
2022-12-16T18:24:11.958Z,104.63
2022-12-16T18:26:54.014Z,104.18
2022-12-16T18:29:36.085Z,98.95
2022-12-16T18:32:18.137Z,96.00
2022-12-16T18:35:00.139Z,104.47
2022-12-16T18:37:42.201Z,104.35
2022-12-16T18:40:24.756Z,96.40
2022-12-16T18:43:06.560Z,99.05
2022-12-16T18:45:48.625Z,103.03
2022-12-16T18:48:30.655Z,103.55
2022-12-16T18:51:15.218Z,90.93
2022-12-16T18:53:57.320Z,112.18
2022-12-16T18:56:39.345Z,98.93
2022-12-16T18:59:21.244Z,111.07
2022-12-16T19:02:03.278Z,99.80
2022-12-16T19:04:45.257Z,99.47
2022-12-16T19:07:27.289Z,105.22
2022-12-16T19:10:09.328Z,102.18
2022-12-16T19:12:51.379Z,104.35
2022-12-16T19:15:36.683Z,99.47
2022-12-16T19:18:21.380Z,96.05
2022-12-16T19:21:11.612Z,103.03
2022-12-16T19:23:53.663Z,94.53
2022-12-16T19:26:37.219Z,102.50
2022-12-16T19:29:19.035Z,113.18
2022-12-16T19:32:01.142Z,103.78
2022-12-16T19:34:43.115Z,101.35
2022-12-16T19:37:25.174Z,101.70
2022-12-16T19:40:07.200Z,100.70
2022-12-16T19:42:49.037Z,108.45
2022-12-16T19:45:31.136Z,107.32
2022-12-16T19:48:18.206Z,98.40
2022-12-16T19:51:00.049Z,104.05
2022-12-16T19:53:42.322Z,97.03
2022-12-16T19:56:24.151Z,89.97
2022-12-16T19:59:06.169Z,94.10
2022-12-16T20:01:48.329Z,94.72
2022-12-16T20:04:30.785Z,105.15
2022-12-16T20:07:17.796Z,94.70
2022-12-16T20:10:03.558Z,91.43
2022-12-16T20:12:45.886Z,94.75
2022-12-16T20:15:27.916Z,99.43
2022-12-16T20:18:09.978Z,96.78
2022-12-16T20:20:52.052Z,100.80
2022-12-16T20:23:34.081Z,97.18
2022-12-16T20:26:17.734Z,91.22
2022-12-16T20:29:00.444Z,97.93
2022-12-16T20:31:42.549Z,94.43
2022-12-16T20:34:24.825Z,91.93
2022-12-16T20:37:06.890Z,86.95
2022-12-16T20:39:56.363Z,94.78
2022-12-16T20:42:40.167Z,94.05
2022-12-16T20:45:22.496Z,84.18
2022-12-16T20:48:04.543Z,91.75
2022-12-16T20:50:46.314Z,91.50
2022-12-16T20:53:28.128Z,86.72
2022-12-16T20:56:10.156Z,93.03
2022-12-16T20:58:56.081Z,91.10
2022-12-16T21:01:41.649Z,94.43
2022-12-16T21:04:26.577Z,86.18
2022-12-16T21:07:08.586Z,90.32
2022-12-16T21:09:51.850Z,84.63
2022-12-16T21:12:33.717Z,100.72
2022-12-16T21:15:15.566Z,92.97
2022-12-16T21:17:57.565Z,92.53
2022-12-16T21:20:39.585Z,82.75
2022-12-16T21:23:22.706Z,100.50
2022-12-16T21:26:04.719Z,101.18
2022-12-16T21:28:46.798Z,91.57
2022-12-16T21:31:28.843Z,94.10
2022-12-16T21:34:10.831Z,102.93
2022-12-16T21:36:52.671Z,96.32
2022-12-16T21:39:38.016Z,105.97
2022-12-16T21:42:20.115Z,100.05
2022-12-16T21:45:02.119Z,108.35
2022-12-16T21:47:43.928Z,99.07
2022-12-16T21:50:25.950Z,99.88
2022-12-16T21:53:07.778Z,97.45
2022-12-16T21:55:49.794Z,106.05
2022-12-16T21:58:31.873Z,98.57
2022-12-16T22:01:14.696Z,99.20
2022-12-16T22:03:57.005Z,99.63
2022-12-16T22:06:39.022Z,95.50
2022-12-16T22:09:21.059Z,95.97
2022-12-16T22:12:02.891Z,95.53
2022-12-16T22:14:44.895Z,96.90
2022-12-16T22:17:26.799Z,89.53
2022-12-16T22:20:08.800Z,103.38
2022-12-16T22:22:51.609Z,97.88
2022-12-16T22:25:33.618Z,104.93
2022-12-16T22:28:15.701Z,93.68
2022-12-16T22:30:57.767Z,106.93
2022-12-16T22:33:39.769Z,100.15
2022-12-16T22:36:23.342Z,101.60
2022-12-16T22:39:05.420Z,95.60
2022-12-16T22:41:47.459Z,100.38
2022-12-16T22:44:29.507Z,101.40
2022-12-16T22:47:12.337Z,87.57
2022-12-16T22:49:54.374Z,95.90
2022-12-16T22:52:37.984Z,104.60
2022-12-16T22:55:20.287Z,100.38
2022-12-16T22:58:02.284Z,98.40
2022-12-16T23:00:44.356Z,95.65
2022-12-16T23:03:31.519Z,94.15
2022-12-16T23:06:13.520Z,90.72
2022-12-16T23:08:55.357Z,96.40
2022-12-16T23:11:46.333Z,99.43
2022-12-16T23:14:28.168Z,92.63
2022-12-16T23:17:10.176Z,86.63
2022-12-16T23:19:52.269Z,97.45
2022-12-16T23:22:34.561Z,93.25
2022-12-16T23:25:16.585Z,93.47
2022-12-16T23:27:58.649Z,99.32
2022-12-16T23:30:40.788Z,93.78
2022-12-16T23:33:22.701Z,94.80
2022-12-16T23:36:04.544Z,93.32
2022-12-16T23:38:46.563Z,93.20
2022-12-16T23:41:28.374Z,95.05
2022-12-16T23:44:10.183Z,92.03
2022-12-16T23:46:52.279Z,91.43
2022-12-16T23:49:38.857Z,88.30
2022-12-16T23:52:20.651Z,94.88
2022-12-16T23:55:02.456Z,95.55
2022-12-16T23:57:44.235Z,94.07
